Terminal Aerodrome Forecast
Issued by NWS Cleveland, OH

Home | Current Version | Previous Version | Text Only | Print | Product List | Glossary Off
Versions: 1 2 3 4 5 6 7 8 9 10 11 12 13 14 15 16 17 18

000
FTUS41 KCLE 010410 AAA
TAFCAK
TAF AMD
KCAK 010410Z 0104/0124 21007KT P6SM VCSH BKN005
     FM010700 22004KT P6SM OVC050
     FM010900 23006KT 4SM BR OVC007
     FM011500 25009KT P6SM BKN025
     FM011800 27008KT P6SM BKN035=

USA.gov is the U.S. government's official web portal to all federal, state and local government web resources and services.